Aneth, Utah
Current Conditions -  °F | °C
As of 11:35 AM on Sunday 21 Dec 2014 (Local Time) from KBDG Reporting Station
Broken Clouds Broken Clouds  
Wind Chill: 34°   Ceiling: 900
Heat Index: 34°   Visibility: 10mi
Dew Point: 32°   Wind: 3mph
Humidity: 90%   Direction: 200°SSW
Pressure: 30.12"   Gusts: NA
Location:  37.22°N, 109.19°W
Report Text: KBDG 211835Z AUTO 20003KT 10SM BKN009 01/00 A3012 RMK AO1 T00131002
Loading
Personal Weather Stations






























Interactive Weather Map New forecast layout! Learn more

10-Day Weather Forecast

Advertisements
Track Severe Weather on mobile